createdAt,value
2023-03-18T00:00:33.534Z, 43.82
2023-03-18T00:01:32.980Z, 43.76
2023-03-18T00:02:33.046Z, 43.79
2023-03-18T00:03:33.020Z, 43.76
2023-03-18T00:04:32.996Z, 43.78
2023-03-18T00:05:33.066Z, 43.78
2023-03-18T00:06:33.047Z, 43.77
2023-03-18T00:07:33.064Z, 43.72
2023-03-18T00:08:33.054Z, 43.63
2023-03-18T00:09:33.112Z, 43.63
2023-03-18T00:10:33.525Z, 43.60
2023-03-18T00:11:33.099Z, 43.59
2023-03-18T00:12:33.153Z, 43.59
2023-03-18T00:13:33.101Z, 43.53
2023-03-18T00:14:33.119Z, 43.53
2023-03-18T00:15:33.149Z, 43.52
2023-03-18T00:16:33.228Z, 43.48
2023-03-18T00:17:33.250Z, 43.44
2023-03-18T00:18:33.219Z, 43.44
2023-03-18T00:19:33.216Z, 43.37
2023-03-18T00:20:33.490Z, 43.30
2023-03-18T00:21:33.226Z, 43.32
2023-03-18T00:22:33.252Z, 43.38
2023-03-18T00:23:33.231Z, 43.27
2023-03-18T00:24:33.240Z, 43.25
2023-03-18T00:25:33.290Z, 43.27
2023-03-18T00:26:33.268Z, 43.26
2023-03-18T00:27:33.364Z, 43.24
2023-03-18T00:28:33.352Z, 43.18
2023-03-18T00:29:33.374Z, 43.16
2023-03-18T00:30:33.678Z, 43.18
2023-03-18T00:31:33.437Z, 43.17
2023-03-18T00:32:33.539Z, 43.18
2023-03-18T00:33:33.433Z, 43.20
2023-03-18T00:34:33.421Z, 43.11
2023-03-18T00:35:33.477Z, 43.04
2023-03-18T00:36:33.427Z, 43.06
2023-03-18T00:37:33.625Z, 43.03
2023-03-18T00:38:33.426Z, 43.02
2023-03-18T00:39:33.439Z, 43.01
2023-03-18T00:40:33.865Z, 43.00
2023-03-18T00:41:33.499Z, 43.03
2023-03-18T00:42:33.545Z, 43.02
2023-03-18T00:43:33.536Z, 42.96
2023-03-18T00:44:33.566Z, 42.94
2023-03-18T00:45:33.544Z, 42.90
2023-03-18T00:46:33.646Z, 42.87
2023-03-18T00:47:33.561Z, 42.85
2023-03-18T00:48:33.545Z, 42.74
2023-03-18T00:49:33.548Z, 42.71
2023-03-18T00:50:33.731Z, 42.63
2023-03-18T00:51:33.582Z, 42.68
2023-03-18T00:52:33.599Z, 42.67
2023-03-18T00:53:33.583Z, 42.72
2023-03-18T00:54:33.602Z, 42.76
2023-03-18T00:55:33.640Z, 42.69
2023-03-18T00:56:43.784Z, 42.70
2023-03-18T00:57:33.718Z, 42.65
2023-03-18T00:58:33.701Z, 42.65
2023-03-18T00:59:33.697Z, 42.66
2023-03-18T01:00:34.101Z, 42.64
2023-03-18T01:01:33.760Z, 42.59
2023-03-18T01:02:33.761Z, 42.52
2023-03-18T01:03:33.757Z, 42.53
2023-03-18T01:04:33.755Z, 42.54
2023-03-18T01:05:33.763Z, 42.50
2023-03-18T01:06:33.817Z, 42.42
2023-03-18T01:07:33.804Z, 42.49
2023-03-18T01:08:33.823Z, 42.43
2023-03-18T01:09:33.826Z, 42.38
2023-03-18T01:10:34.010Z, 42.39
2023-03-18T01:11:33.872Z, 42.37
2023-03-18T01:12:33.862Z, 42.33
2023-03-18T01:13:33.938Z, 42.34
2023-03-18T01:14:33.911Z, 42.32
2023-03-18T01:15:33.919Z, 42.24
2023-03-18T01:16:34.052Z, 42.23
2023-03-18T01:17:33.918Z, 42.24
2023-03-18T01:18:34.006Z, 42.17
2023-03-18T01:19:33.976Z, 42.19
2023-03-18T01:20:34.244Z, 42.16
2023-03-18T01:21:33.975Z, 42.19
2023-03-18T01:22:33.969Z, 42.16
2023-03-18T01:23:34.035Z, 42.14
2023-03-18T01:24:34.009Z, 42.09
2023-03-18T01:25:34.065Z, 42.10
2023-03-18T01:26:34.037Z, 42.06
2023-03-18T01:27:34.044Z, 42.03
2023-03-18T01:28:34.096Z, 42.03
2023-03-18T01:29:34.074Z, 42.08
2023-03-18T01:30:34.141Z, 42.05
2023-03-18T01:31:34.171Z, 42.01
2023-03-18T01:32:34.254Z, 41.97
2023-03-18T01:33:34.119Z, 41.95
2023-03-18T01:34:34.115Z, 41.92
2023-03-18T01:35:34.137Z, 41.91
2023-03-18T01:36:34.129Z, 41.88
2023-03-18T01:37:34.170Z, 41.83
2023-03-18T01:38:34.145Z, 41.85
2023-03-18T01:39:34.225Z, 41.83
2023-03-18T01:40:34.224Z, 41.77
2023-03-18T01:41:34.216Z, 41.80
2023-03-18T01:42:34.217Z, 41.81
2023-03-18T01:43:34.290Z, 41.81
2023-03-18T01:44:34.233Z, 41.79
2023-03-18T01:45:34.241Z, 41.76
2023-03-18T01:46:34.231Z, 41.76
2023-03-18T01:47:34.247Z, 41.70
2023-03-18T01:48:34.292Z, 41.69
2023-03-18T01:49:34.264Z, 41.65
2023-03-18T01:50:34.471Z, 41.68
2023-03-18T01:51:34.318Z, 41.61
2023-03-18T01:52:34.391Z, 41.65
2023-03-18T01:53:34.343Z, 41.60
2023-03-18T01:54:34.360Z, 41.61
2023-03-18T01:55:34.381Z, 41.60
2023-03-18T01:56:34.355Z, 41.62
2023-03-18T01:57:34.446Z, 41.59
2023-03-18T01:58:34.399Z, 41.55
2023-03-18T01:59:34.448Z, 41.55
2023-03-18T02:00:34.418Z, 41.49
2023-03-18T02:01:34.420Z, 41.48
2023-03-18T02:02:34.445Z, 41.50
2023-03-18T02:03:34.436Z, 41.45
2023-03-18T02:04:34.512Z, 41.42
2023-03-18T02:05:34.521Z, 41.34
2023-03-18T02:06:34.483Z, 41.36
2023-03-18T02:07:34.493Z, 41.36
2023-03-18T02:08:34.483Z, 41.35
2023-03-18T02:09:34.558Z, 41.35
2023-03-18T02:10:34.603Z, 41.34
2023-03-18T02:11:34.591Z, 41.32
2023-03-18T02:12:34.586Z, 41.28
2023-03-18T02:13:34.616Z, 41.22
2023-03-18T02:14:34.601Z, 41.21
2023-03-18T02:15:34.592Z, 41.21
2023-03-18T02:16:34.691Z, 41.20
2023-03-18T02:17:34.614Z, 41.14
2023-03-18T02:18:34.641Z, 41.12
2023-03-18T02:19:34.642Z, 41.08
2023-03-18T02:20:34.658Z, 41.08
2023-03-18T02:21:34.704Z, 41.07
2023-03-18T02:22:34.750Z, 41.08
2023-03-18T02:23:34.713Z, 41.04
2023-03-18T02:24:34.770Z, 41.04
2023-03-18T02:25:34.761Z, 40.98
2023-03-18T02:26:34.795Z, 40.99
2023-03-18T02:27:34.787Z, 40.94
2023-03-18T02:28:34.793Z, 40.95
2023-03-18T02:29:34.784Z, 40.94
2023-03-18T02:30:35.176Z, 40.89
2023-03-18T02:31:34.774Z, 40.94
2023-03-18T02:32:34.894Z, 40.91
2023-03-18T02:33:34.803Z, 40.93
2023-03-18T02:34:34.819Z, 40.89
2023-03-18T02:35:34.947Z, 40.87
2023-03-18T02:36:34.844Z, 40.79
2023-03-18T02:37:34.933Z, 40.72
2023-03-18T02:38:34.898Z, 40.75
2023-03-18T02:39:34.965Z, 40.79
2023-03-18T02:40:34.947Z, 40.83
2023-03-18T02:41:34.933Z, 40.80
2023-03-18T02:42:34.950Z, 40.81
2023-03-18T02:43:34.949Z, 40.79
2023-03-18T02:44:34.957Z, 40.76
2023-03-18T02:45:34.962Z, 40.74
2023-03-18T02:46:34.977Z, 40.71
2023-03-18T02:47:35.006Z, 40.67
2023-03-18T02:48:35.014Z, 40.68
2023-03-18T02:49:35.005Z, 40.65
2023-03-18T02:50:35.088Z, 40.64
2023-03-18T02:51:35.053Z, 40.68
2023-03-18T02:52:35.065Z, 40.71
2023-03-18T02:53:35.059Z, 40.72
2023-03-18T02:54:35.080Z, 40.64
2023-03-18T02:55:35.092Z, 40.61
2023-03-18T02:56:35.075Z, 40.59
2023-03-18T02:57:35.149Z, 40.55
2023-03-18T02:58:35.132Z, 40.54
2023-03-18T02:59:35.172Z, 40.54
2023-03-18T03:00:35.154Z, 40.52
2023-03-18T03:01:35.268Z, 40.50
2023-03-18T03:02:35.373Z, 40.48
2023-03-18T03:03:35.332Z, 40.46
2023-03-18T03:04:35.197Z, 40.44
2023-03-18T03:05:35.212Z, 40.43
2023-03-18T03:06:35.256Z, 40.43
2023-03-18T03:07:35.247Z, 40.44
2023-03-18T03:08:35.317Z, 40.42
2023-03-18T03:09:35.296Z, 40.44
2023-03-18T03:10:35.347Z, 40.40
2023-03-18T03:11:35.334Z, 40.38
2023-03-18T03:12:35.340Z, 40.35
2023-03-18T03:13:35.332Z, 40.29
2023-03-18T03:14:35.329Z, 40.33
2023-03-18T03:15:35.351Z, 40.28
2023-03-18T03:16:35.348Z, 40.27
2023-03-18T03:17:35.359Z, 40.28
2023-03-18T03:18:35.370Z, 40.24
2023-03-18T03:19:35.453Z, 40.22
2023-03-18T03:20:35.437Z, 40.22
2023-03-18T03:21:35.419Z, 40.17
2023-03-18T03:22:35.438Z, 40.12
2023-03-18T03:23:35.421Z, 40.16
2023-03-18T03:24:35.487Z, 40.21
2023-03-18T03:25:35.460Z, 40.14
2023-03-18T03:26:35.514Z, 40.08
2023-03-18T03:27:35.505Z, 40.13
2023-03-18T03:28:35.529Z, 40.12
2023-03-18T03:29:35.484Z, 40.10
2023-03-18T03:30:35.512Z, 40.04
2023-03-18T03:31:35.596Z, 40.02
2023-03-18T03:32:35.583Z, 40.02
2023-03-18T03:33:35.533Z, 40.02
2023-03-18T03:34:35.608Z, 39.96
2023-03-18T03:35:35.658Z, 39.97
2023-03-18T03:36:35.598Z, 39.95
2023-03-18T03:37:35.658Z, 39.97
2023-03-18T03:38:35.659Z, 39.95
2023-03-18T03:39:35.660Z, 40.01
2023-03-18T03:40:35.651Z, 39.97
2023-03-18T03:41:35.655Z, 39.98
2023-03-18T03:42:35.731Z, 39.97
2023-03-18T03:43:35.692Z, 39.91
2023-03-18T03:44:35.674Z, 39.93
2023-03-18T03:45:35.681Z, 39.87
2023-03-18T03:46:35.754Z, 39.84
2023-03-18T03:47:35.710Z, 39.79
2023-03-18T03:48:35.801Z, 39.70
2023-03-18T03:49:35.744Z, 39.73
2023-03-18T03:52:35.828Z, 39.66
2023-03-18T03:53:35.804Z, 39.65
2023-03-18T03:54:35.804Z, 39.61
2023-03-18T03:55:35.809Z, 39.63
2023-03-18T03:56:35.822Z, 39.68
2023-03-18T03:57:35.829Z, 39.65
2023-03-18T03:58:35.843Z, 39.64
2023-03-18T03:59:35.912Z, 39.66
2023-03-18T04:00:35.870Z, 39.63
2023-03-18T04:01:35.896Z, 39.61
2023-03-18T04:02:35.941Z, 39.57
2023-03-18T04:03:35.903Z, 39.53
2023-03-18T04:04:35.997Z, 39.51
2023-03-18T04:05:36.016Z, 39.56
2023-03-18T04:06:35.994Z, 39.53
2023-03-18T04:07:35.999Z, 39.55
2023-03-18T04:08:35.993Z, 39.52
2023-03-18T04:09:35.988Z, 39.52
2023-03-18T04:10:36.001Z, 39.48
2023-03-18T04:11:36.005Z, 39.51
2023-03-18T04:12:36.039Z, 39.47
2023-03-18T04:13:36.087Z, 39.46
2023-03-18T04:14:36.110Z, 39.46
2023-03-18T04:15:36.073Z, 39.49
2023-03-18T04:16:36.234Z, 39.47
2023-03-18T04:17:36.120Z, 39.51
2023-03-18T04:18:36.133Z, 39.46
2023-03-18T04:19:36.107Z, 39.42
2023-03-18T04:20:36.133Z, 39.35
2023-03-18T04:21:36.143Z, 39.33
2023-03-18T04:22:36.184Z, 39.40
2023-03-18T04:23:36.206Z, 39.37
2023-03-18T04:24:36.191Z, 39.36
2023-03-18T04:25:36.240Z, 39.35
2023-03-18T04:26:36.233Z, 39.32
2023-03-18T04:27:36.306Z, 39.27
2023-03-18T04:28:36.273Z, 39.22
2023-03-18T04:29:36.303Z, 39.23
2023-03-18T04:30:36.279Z, 39.19
2023-03-18T04:31:36.391Z, 39.95
2023-03-18T04:32:36.320Z, 41.18
2023-03-18T04:33:36.313Z, 41.50
2023-03-18T04:34:36.303Z, 41.56
2023-03-18T04:35:36.335Z, 41.52
2023-03-18T04:36:36.336Z, 41.45
2023-03-18T04:37:37.385Z, 41.39
2023-03-18T04:38:36.333Z, 41.34
2023-03-18T04:39:36.369Z, 41.20
2023-03-18T04:40:36.405Z, 41.04
2023-03-18T04:41:36.431Z, 40.89
2023-03-18T04:42:36.463Z, 40.77
2023-03-18T04:43:36.415Z, 40.70
2023-03-18T04:44:36.471Z, 40.58
2023-03-18T04:45:36.441Z, 40.53
2023-03-18T04:46:36.664Z, 40.44
2023-03-18T04:47:36.467Z, 40.39
2023-03-18T04:48:36.454Z, 40.40
2023-03-18T04:49:36.482Z, 40.34
2023-03-18T04:50:36.497Z, 40.26
2023-03-18T04:51:36.508Z, 40.23
2023-03-18T04:52:36.524Z, 40.21
2023-03-18T04:53:36.578Z, 40.14
2023-03-18T04:54:36.552Z, 40.09
2023-03-18T04:55:36.623Z, 40.05
2023-03-18T04:56:36.585Z, 40.04
2023-03-18T04:57:36.642Z, 39.98
2023-03-18T04:58:36.652Z, 39.95
2023-03-18T04:59:36.620Z, 39.91
2023-03-18T05:00:36.691Z, 39.88
2023-03-18T05:01:36.711Z, 39.97
2023-03-18T05:02:36.685Z, 47.99
2023-03-18T05:03:36.705Z, 53.82
2023-03-18T05:04:36.677Z, 55.88
2023-03-18T05:05:38.562Z, 58.35
2023-03-18T05:06:36.687Z, 64.29
2023-03-18T05:07:36.710Z, 60.60
2023-03-18T05:08:36.707Z, 53.02
2023-03-18T05:09:36.780Z, 53.69
2023-03-18T05:10:36.760Z, 54.88
2023-03-18T05:11:36.767Z, 57.45
2023-03-18T05:12:36.773Z, 61.04
2023-03-18T05:13:36.808Z, 67.68
2023-03-18T05:14:36.785Z, 56.23
2023-03-18T05:15:36.791Z, 53.64
2023-03-18T05:16:36.910Z, 54.76
2023-03-18T05:17:36.856Z, 56.40
2023-03-18T05:18:36.915Z, 59.66
2023-03-18T05:19:36.897Z, 62.98
2023-03-18T05:20:36.937Z, 61.86
2023-03-18T05:21:36.913Z, 63.81
2023-03-18T05:22:36.972Z, 63.76
2023-03-18T05:23:36.941Z, 62.73
2023-03-18T05:24:36.981Z, 61.35
2023-03-18T05:25:36.977Z, 60.39
2023-03-18T05:26:36.998Z, 59.56
2023-03-18T05:27:37.007Z, 58.87
2023-03-18T05:28:36.991Z, 58.25
2023-03-18T05:29:37.046Z, 57.66
2023-03-18T05:30:37.017Z, 57.11
2023-03-18T05:31:37.147Z, 56.63
2023-03-18T05:32:37.136Z, 56.14
2023-03-18T05:33:37.066Z, 55.68
2023-03-18T05:34:37.047Z, 55.18
2023-03-18T05:35:37.181Z, 54.70
2023-03-18T05:36:37.071Z, 54.26
2023-03-18T05:37:37.094Z, 53.86
2023-03-18T05:38:37.138Z, 53.44
2023-03-18T05:39:37.104Z, 53.03
2023-03-18T05:40:37.184Z, 52.66
2023-03-18T05:41:37.198Z, 52.30
2023-03-18T05:42:49.434Z, 51.94
2023-03-18T05:43:37.174Z, 51.60
2023-03-18T05:44:37.219Z, 51.33
2023-03-18T05:45:39.976Z, 51.02
2023-03-18T05:46:37.236Z, 50.73
2023-03-18T05:47:37.240Z, 50.45
2023-03-18T05:48:37.227Z, 50.22
2023-03-18T05:49:37.223Z, 49.93
2023-03-18T05:50:37.246Z, 49.68
2023-03-18T05:51:37.257Z, 49.44
2023-03-18T05:52:37.277Z, 49.27
2023-03-18T05:53:37.281Z, 49.06
2023-03-18T05:54:37.281Z, 48.86
2023-03-18T05:55:37.375Z, 48.66
2023-03-18T05:56:37.345Z, 48.44
2023-03-18T05:57:37.382Z, 48.28
2023-03-18T05:58:37.364Z, 48.04
2023-03-18T05:59:37.360Z, 47.89
2023-03-18T06:00:37.363Z, 47.73
2023-03-18T06:01:37.365Z, 47.57
2023-03-18T06:02:37.716Z, 47.27
2023-03-18T06:03:37.466Z, 47.06
2023-03-18T06:04:37.474Z, 46.79
2023-03-18T06:05:37.439Z, 46.51
2023-03-18T06:06:37.445Z, 46.25
2023-03-18T06:07:37.444Z, 46.01
2023-03-18T06:08:37.472Z, 45.81
2023-03-18T06:09:37.482Z, 45.57
2023-03-18T06:10:37.514Z, 45.41
2023-03-18T06:11:37.510Z, 45.20
2023-03-18T06:12:37.512Z, 45.02
2023-03-18T06:13:37.515Z, 44.86
2023-03-18T06:14:37.545Z, 44.73
2023-03-18T06:15:37.614Z, 44.58
2023-03-18T06:16:37.614Z, 44.31
2023-03-18T06:17:37.620Z, 44.01
2023-03-18T06:18:37.646Z, 43.73
2023-03-18T06:19:37.629Z, 43.47
2023-03-18T06:20:37.626Z, 43.30
2023-03-18T06:21:37.618Z, 43.13
2023-03-18T06:22:37.629Z, 43.02
2023-03-18T06:23:37.628Z, 42.88
2023-03-18T06:24:37.643Z, 42.80
2023-03-18T06:25:37.664Z, 42.70
2023-03-18T06:26:37.731Z, 42.59
2023-03-18T06:27:37.706Z, 42.53
2023-03-18T06:28:37.722Z, 42.42
2023-03-18T06:29:37.696Z, 42.35
2023-03-18T06:30:37.793Z, 42.28
2023-03-18T06:31:37.769Z, 42.19
2023-03-18T06:32:37.856Z, 42.15
2023-03-18T06:33:37.785Z, 42.11
2023-03-18T06:34:37.825Z, 42.02
2023-03-18T06:35:37.858Z, 41.97
2023-03-18T06:36:37.893Z, 41.87
2023-03-18T06:37:37.848Z, 41.82
2023-03-18T06:38:37.835Z, 41.74
2023-03-18T06:39:39.482Z, 41.68
2023-03-18T06:40:37.855Z, 41.58
2023-03-18T06:41:37.853Z, 41.51
2023-03-18T06:42:37.973Z, 41.48
2023-03-18T06:43:37.938Z, 41.39
2023-03-18T06:44:37.915Z, 41.42
2023-03-18T06:45:37.946Z, 41.31
2023-03-18T06:46:38.090Z, 41.31
2023-03-18T06:47:38.003Z, 41.29
2023-03-18T06:48:37.962Z, 41.23
2023-03-18T06:49:37.965Z, 41.19
2023-03-18T06:50:37.997Z, 41.17
2023-03-18T06:51:37.963Z, 41.13
2023-03-18T06:52:38.006Z, 41.10
2023-03-18T06:53:38.010Z, 41.09
2023-03-18T06:54:38.083Z, 41.04
2023-03-18T06:55:38.103Z, 40.96
2023-03-18T06:56:38.071Z, 40.87
2023-03-18T06:57:38.092Z, 40.89
2023-03-18T06:58:38.063Z, 40.83
2023-03-18T06:59:38.152Z, 40.79
2023-03-18T07:00:38.126Z, 40.74
2023-03-18T07:01:38.223Z, 40.69
2023-03-18T07:02:39.648Z, 40.73
2023-03-18T07:03:38.189Z, 40.62
2023-03-18T07:04:38.204Z, 40.67
2023-03-18T07:05:38.145Z, 40.66
2023-03-18T07:06:38.219Z, 40.58
2023-03-18T07:07:38.202Z, 40.54
2023-03-18T07:08:38.225Z, 40.52
2023-03-18T07:09:38.200Z, 40.53
2023-03-18T07:10:38.248Z, 40.54
2023-03-18T07:11:38.236Z, 40.50
2023-03-18T07:12:38.257Z, 40.46
2023-03-18T07:13:38.253Z, 40.45
2023-03-18T07:14:38.254Z, 40.42
2023-03-18T07:15:38.275Z, 40.36
2023-03-18T07:16:38.240Z, 40.36
2023-03-18T07:17:38.258Z, 40.36
2023-03-18T07:18:38.304Z, 40.32
2023-03-18T07:19:38.280Z, 40.28
2023-03-18T07:20:38.349Z, 40.24
2023-03-18T07:21:38.348Z, 40.25
2023-03-18T07:22:38.374Z, 40.25
2023-03-18T07:23:38.413Z, 40.25
2023-03-18T07:24:38.410Z, 40.23
2023-03-18T07:25:38.403Z, 40.27
2023-03-18T07:26:38.386Z, 40.21
2023-03-18T07:27:38.408Z, 40.15
2023-03-18T07:28:38.468Z, 40.06
2023-03-18T07:29:38.439Z, 40.08
2023-03-18T07:30:38.439Z, 40.03
2023-03-18T07:31:38.604Z, 39.97
2023-03-18T07:32:38.692Z, 39.96
2023-03-18T07:33:38.495Z, 39.97
2023-03-18T07:34:38.485Z, 39.93
2023-03-18T07:35:38.526Z, 39.85
2023-03-18T07:36:38.486Z, 39.94
2023-03-18T07:37:38.524Z, 39.93
2023-03-18T07:38:38.591Z, 39.86
2023-03-18T07:39:38.603Z, 39.84
2023-03-18T07:40:38.625Z, 39.86
2023-03-18T07:41:38.575Z, 39.82
2023-03-18T07:42:38.608Z, 39.84
2023-03-18T07:43:38.585Z, 39.81
2023-03-18T07:44:38.598Z, 39.73
2023-03-18T07:45:38.603Z, 39.72
2023-03-18T07:46:38.617Z, 39.67
2023-03-18T07:47:38.676Z, 39.67
2023-03-18T07:48:38.653Z, 39.68
2023-03-18T07:49:38.714Z, 39.69
2023-03-18T07:50:38.708Z, 39.67
2023-03-18T07:51:38.689Z, 39.64
2023-03-18T07:52:38.704Z, 39.67
2023-03-18T07:53:38.733Z, 39.56
2023-03-18T07:54:38.724Z, 39.55
2023-03-18T07:55:38.781Z, 39.60
2023-03-18T07:56:38.809Z, 39.59
2023-03-18T07:57:38.825Z, 39.56
2023-03-18T07:58:38.817Z, 39.50
2023-03-18T07:59:38.798Z, 39.45
2023-03-18T08:00:38.840Z, 39.43
2023-03-18T08:01:38.817Z, 39.38
2023-03-18T08:02:38.875Z, 39.34
2023-03-18T08:03:38.885Z, 39.37
2023-03-18T08:04:38.861Z, 39.41
2023-03-18T08:05:38.845Z, 39.36
2023-03-18T08:06:38.895Z, 39.33
2023-03-18T08:07:38.904Z, 39.31
2023-03-18T08:08:38.898Z, 39.35
2023-03-18T08:09:38.896Z, 39.31
2023-03-18T08:10:38.993Z, 39.31
2023-03-18T08:11:38.954Z, 39.30
2023-03-18T08:12:52.133Z, 39.33
2023-03-18T08:13:38.978Z, 39.28
2023-03-18T08:14:38.992Z, 39.28
2023-03-18T08:15:39.040Z, 39.26
2023-03-18T08:16:39.055Z, 39.26
2023-03-18T08:17:39.028Z, 39.27
2023-03-18T08:18:39.080Z, 39.27
2023-03-18T08:19:39.052Z, 39.26
2023-03-18T08:20:39.161Z, 39.22
2023-03-18T08:21:39.121Z, 39.21
2023-03-18T08:22:39.119Z, 39.24
2023-03-18T08:23:39.121Z, 39.20
2023-03-18T08:24:39.153Z, 39.13
2023-03-18T08:25:39.144Z, 39.16
2023-03-18T08:26:39.134Z, 39.19
2023-03-18T08:27:39.140Z, 39.15
2023-03-18T08:28:39.203Z, 39.17
2023-03-18T08:29:39.185Z, 39.14
2023-03-18T08:30:39.197Z, 39.06
2023-03-18T08:31:39.263Z, 39.07
2023-03-18T08:32:39.259Z, 39.11
2023-03-18T08:33:39.191Z, 39.08
2023-03-18T08:34:39.196Z, 39.04
2023-03-18T08:35:39.268Z, 39.05
2023-03-18T08:36:39.230Z, 38.97
2023-03-18T08:37:39.264Z, 38.94
2023-03-18T08:38:39.277Z, 38.95
2023-03-18T08:39:39.270Z, 38.98
2023-03-18T08:40:39.371Z, 38.99
2023-03-18T08:41:39.339Z, 38.97
2023-03-18T08:42:39.430Z, 39.04
2023-03-18T08:43:39.335Z, 38.99
2023-03-18T08:44:39.385Z, 38.95
2023-03-18T08:45:39.485Z, 38.95
2023-03-18T08:46:39.432Z, 38.92
2023-03-18T08:47:39.422Z, 38.89
2023-03-18T08:48:39.423Z, 38.91
2023-03-18T08:49:39.466Z, 38.92
2023-03-18T08:50:39.410Z, 38.88
2023-03-18T08:51:39.500Z, 38.88
2023-03-18T08:52:39.485Z, 38.90
2023-03-18T08:53:39.484Z, 38.85
2023-03-18T08:54:39.483Z, 38.82
2023-03-18T08:55:39.478Z, 38.84
2023-03-18T08:56:39.493Z, 38.83
2023-03-18T08:57:39.495Z, 38.78
2023-03-18T08:58:39.584Z, 38.75
2023-03-18T08:59:39.535Z, 38.81
2023-03-18T09:00:39.578Z, 38.79
2023-03-18T09:01:39.627Z, 38.78
2023-03-18T09:02:39.602Z, 38.67
2023-03-18T09:03:39.686Z, 38.62
2023-03-18T09:04:39.656Z, 38.67
2023-03-18T09:05:39.628Z, 38.66
2023-03-18T09:06:39.654Z, 38.59
2023-03-18T09:07:39.645Z, 38.58
2023-03-18T09:08:39.730Z, 38.62
2023-03-18T09:09:43.982Z, 38.61
2023-03-18T09:10:39.691Z, 38.58
2023-03-18T09:11:39.742Z, 38.56
2023-03-18T09:12:39.698Z, 38.53
2023-03-18T09:13:39.789Z, 38.50
2023-03-18T09:14:39.765Z, 38.46
2023-03-18T09:15:39.758Z, 38.48
2023-03-18T09:16:39.813Z, 38.46
2023-03-18T09:17:56.643Z, 38.44
2023-03-18T09:18:40.387Z, 38.45
2023-03-18T09:19:39.780Z, 38.47
2023-03-18T09:20:39.780Z, 38.50
2023-03-18T09:21:39.801Z, 38.45
2023-03-18T09:22:39.803Z, 38.48
2023-03-18T09:23:39.828Z, 38.43
2023-03-18T09:24:40.078Z, 38.50
2023-03-18T09:25:39.844Z, 38.44
2023-03-18T09:26:39.886Z, 38.44
2023-03-18T09:27:40.291Z, 38.44
2023-03-18T09:28:39.961Z, 38.42
2023-03-18T09:29:39.957Z, 38.38
2023-03-18T09:30:39.987Z, 38.37
2023-03-18T09:31:39.935Z, 38.34
2023-03-18T09:32:40.088Z, 38.32
2023-03-18T09:33:39.979Z, 38.33
2023-03-18T09:34:39.978Z, 38.27
2023-03-18T09:35:40.130Z, 38.31
2023-03-18T09:36:40.038Z, 38.32
2023-03-18T09:37:40.033Z, 38.27
2023-03-18T09:38:40.048Z, 38.25
2023-03-18T09:39:40.065Z, 38.17
2023-03-18T09:40:40.101Z, 38.20
2023-03-18T09:41:40.075Z, 38.25
2023-03-18T09:42:40.156Z, 38.19
2023-03-18T09:43:40.145Z, 38.17
2023-03-18T09:44:40.186Z, 38.16
2023-03-18T09:45:40.190Z, 38.10
2023-03-18T09:46:40.283Z, 38.06
2023-03-18T09:47:40.148Z, 38.07
2023-03-18T09:48:40.198Z, 38.06
2023-03-18T09:49:40.185Z, 38.03
2023-03-18T09:50:40.243Z, 38.00
2023-03-18T09:51:40.224Z, 38.04
2023-03-18T09:52:40.256Z, 37.99
2023-03-18T09:53:40.232Z, 37.98
2023-03-18T09:54:40.282Z, 38.01
2023-03-18T09:55:40.303Z, 38.03
2023-03-18T09:56:40.286Z, 37.96
2023-03-18T09:57:40.288Z, 37.95
2023-03-18T09:58:40.360Z, 37.94
2023-03-18T09:59:40.324Z, 37.97
2023-03-18T10:00:40.318Z, 37.99
2023-03-18T10:01:40.370Z, 37.93
2023-03-18T10:02:40.376Z, 37.99
2023-03-18T10:03:40.376Z, 38.04
2023-03-18T10:04:40.389Z, 37.95
2023-03-18T10:05:40.383Z, 37.95
2023-03-18T10:06:40.387Z, 37.96
2023-03-18T10:07:40.444Z, 38.02
2023-03-18T10:08:40.412Z, 37.99
2023-03-18T10:09:40.420Z, 37.92
2023-03-18T10:10:40.433Z, 37.98
2023-03-18T10:11:40.457Z, 37.99
2023-03-18T10:12:40.459Z, 37.93
2023-03-18T10:13:40.471Z, 37.94
2023-03-18T10:14:40.473Z, 37.90
2023-03-18T10:15:40.528Z, 37.86
2023-03-18T10:16:40.507Z, 37.86
2023-03-18T10:17:40.518Z, 37.86
2023-03-18T10:18:40.530Z, 37.85
2023-03-18T10:19:40.595Z, 37.89
2023-03-18T10:20:40.567Z, 37.88
2023-03-18T10:21:40.569Z, 37.86
2023-03-18T10:22:40.595Z, 37.86
2023-03-18T10:23:40.636Z, 37.81
2023-03-18T10:24:40.623Z, 37.80
2023-03-18T10:25:40.627Z, 37.79
2023-03-18T10:26:40.626Z, 37.78
2023-03-18T10:27:40.655Z, 37.78
2023-03-18T10:28:40.674Z, 37.85
2023-03-18T10:29:40.690Z, 37.78
2023-03-18T10:30:41.444Z, 37.76
2023-03-18T10:31:40.698Z, 37.68
2023-03-18T10:32:49.645Z, 37.70
2023-03-18T10:33:40.743Z, 37.73
2023-03-18T10:34:40.743Z, 37.75
2023-03-18T10:35:40.778Z, 37.75
2023-03-18T10:36:40.825Z, 37.79
2023-03-18T10:37:40.793Z, 37.73
2023-03-18T10:38:40.852Z, 37.76
2023-03-18T10:39:40.817Z, 37.74
2023-03-18T10:40:40.815Z, 37.69
2023-03-18T10:41:40.809Z, 37.79
2023-03-18T10:42:40.873Z, 37.76
2023-03-18T10:43:40.857Z, 37.77
2023-03-18T10:44:40.854Z, 37.69
2023-03-18T10:45:40.948Z, 37.66
2023-03-18T10:46:41.084Z, 37.70
2023-03-18T10:47:40.952Z, 37.64
2023-03-18T10:48:40.967Z, 37.65
2023-03-18T10:49:41.011Z, 37.69
2023-03-18T10:50:40.975Z, 37.71
2023-03-18T10:51:41.028Z, 37.66
2023-03-18T10:52:41.014Z, 37.59
2023-03-18T10:53:41.051Z, 37.61
2023-03-18T10:54:41.036Z, 37.63
2023-03-18T10:55:41.025Z, 37.63
2023-03-18T10:56:41.072Z, 37.60
2023-03-18T10:57:41.075Z, 37.51
2023-03-18T10:58:41.119Z, 37.55
2023-03-18T10:59:41.106Z, 37.59
2023-03-18T11:00:41.131Z, 37.51
2023-03-18T11:01:41.104Z, 38.43
2023-03-18T11:02:41.223Z, 39.50
2023-03-18T11:03:41.157Z, 39.75
2023-03-18T11:04:41.177Z, 39.79
2023-03-18T11:05:41.147Z, 39.74
2023-03-18T11:06:41.156Z, 39.77
2023-03-18T11:07:41.153Z, 39.77
2023-03-18T11:08:41.182Z, 39.74
2023-03-18T11:09:41.174Z, 39.71
2023-03-18T11:10:41.176Z, 39.61
2023-03-18T11:11:41.184Z, 39.49
2023-03-18T11:12:41.210Z, 39.37
2023-03-18T11:13:41.310Z, 39.19
2023-03-18T11:14:41.277Z, 39.07
2023-03-18T11:15:41.368Z, 38.95
2023-03-18T11:16:41.307Z, 38.87
2023-03-18T11:17:41.354Z, 38.74
2023-03-18T11:18:41.352Z, 38.68
2023-03-18T11:19:41.369Z, 38.57
2023-03-18T11:20:41.352Z, 38.48
2023-03-18T11:21:41.358Z, 38.43
2023-03-18T11:22:41.360Z, 38.32
2023-03-18T11:23:41.488Z, 38.27
2023-03-18T11:24:41.465Z, 38.16
2023-03-18T11:25:41.418Z, 38.10
2023-03-18T11:26:41.418Z, 38.06
2023-03-18T11:27:41.448Z, 37.99
2023-03-18T11:28:41.546Z, 37.93
2023-03-18T11:29:41.511Z, 37.92
2023-03-18T11:30:41.923Z, 37.84
2023-03-18T11:31:41.619Z, 37.71
2023-03-18T11:32:41.647Z, 37.54
2023-03-18T11:33:41.549Z, 37.48
2023-03-18T11:34:41.548Z, 37.37
2023-03-18T11:35:41.620Z, 37.17
2023-03-18T11:36:41.522Z, 36.99
2023-03-18T11:37:41.581Z, 36.85
2023-03-18T11:38:41.615Z, 36.72
2023-03-18T11:39:41.745Z, 36.61
2023-03-18T11:40:41.572Z, 36.48
2023-03-18T11:41:41.599Z, 36.41
2023-03-18T11:42:41.644Z, 36.36
2023-03-18T11:43:41.617Z, 36.31
2023-03-18T11:44:41.679Z, 36.25
2023-03-18T11:45:41.633Z, 36.21
2023-03-18T11:46:41.745Z, 36.15
2023-03-18T11:47:41.688Z, 36.08
2023-03-18T11:48:41.740Z, 36.03
2023-03-18T11:49:41.730Z, 36.01
2023-03-18T11:50:41.774Z, 36.00
2023-03-18T11:51:41.735Z, 35.98
2023-03-18T11:52:41.729Z, 35.92
2023-03-18T11:53:41.745Z, 35.92
2023-03-18T11:54:41.743Z, 35.90
2023-03-18T11:55:41.748Z, 35.85
2023-03-18T11:56:41.760Z, 35.81
2023-03-18T11:57:41.771Z, 35.79
2023-03-18T11:58:41.795Z, 35.76
2023-03-18T11:59:41.806Z, 35.73
2023-03-18T12:00:41.807Z, 35.72
2023-03-18T12:01:41.927Z, 35.70
2023-03-18T12:02:41.839Z, 35.66
2023-03-18T12:03:41.937Z, 35.62
2023-03-18T12:04:41.951Z, 35.58
2023-03-18T12:05:41.946Z, 35.55
2023-03-18T12:06:41.894Z, 35.52
2023-03-18T12:07:41.912Z, 35.48
2023-03-18T12:08:41.921Z, 35.50
2023-03-18T12:09:41.966Z, 35.50
2023-03-18T12:10:42.008Z, 35.52
2023-03-18T12:11:41.974Z, 35.46
2023-03-18T12:12:42.033Z, 35.42
2023-03-18T12:13:42.033Z, 35.43
2023-03-18T12:14:42.064Z, 35.46
2023-03-18T12:15:42.036Z, 35.45
2023-03-18T12:16:42.116Z, 35.39
2023-03-18T12:17:42.058Z, 35.40
2023-03-18T12:18:43.023Z, 35.43
2023-03-18T12:19:42.123Z, 35.46
2023-03-18T12:20:42.094Z, 35.41
2023-03-18T12:21:42.151Z, 35.38
2023-03-18T12:22:42.145Z, 35.36
2023-03-18T12:23:42.155Z, 35.37
2023-03-18T12:24:42.151Z, 35.37
2023-03-18T12:25:42.196Z, 35.36
2023-03-18T12:26:42.161Z, 35.35
2023-03-18T12:27:42.223Z, 35.32
2023-03-18T12:28:42.213Z, 35.26
2023-03-18T12:29:42.206Z, 35.27
2023-03-18T12:30:42.213Z, 35.25